Time;durP1;ratioP1;P1;durP2;ratioP2;P2;SDS_P1;SDS_P2;PMS_P1;PMS_P2;Temp;Humidity;BMP_temperature;BMP_pressure;BME280_temperature;BME280_humidity;BME280_pressure;Samples;Min_cycle;Max_cycle;Signal;HPM_P1;HPM_P2
2021/06/07 00:00:29;;;;;;;18.05;14.10;;;487.10;2227.20;;;;;;5073317;28;20485;-56
2021/06/07 00:02:56;;;;;;;15.55;14.05;;;487.00;2227.20;;;;;;5073507;28;20020;-56
2021/06/07 00:05:23;;;;;;;18.23;15.00;;;487.00;2227.20;;;;;;5073245;28;20365;-56
2021/06/07 00:07:50;;;;;;;16.90;13.93;;;486.90;2227.20;;;;;;5073154;28;20058;-56
2021/06/07 00:10:18;;;;;;;16.85;15.05;;;486.90;2201.60;;;;;;5073363;28;20021;-56
2021/06/07 00:12:45;;;;;;;15.48;13.93;;;486.90;2227.20;;;;;;5073323;28;20041;-56
2021/06/07 00:15:14;;;;;;;15.38;13.77;;;486.80;2227.20;;;;;;5073126;28;20028;-56
2021/06/07 00:17:40;;;;;;;20.00;13.60;;;486.80;2227.20;;;;;;5073299;28;20020;-56
2021/06/07 00:20:13;;;;;;;14.95;13.18;;;486.80;2227.20;;;;;;5073477;28;20052;-56
2021/06/07 00:22:39;;;;;;;15.95;14.45;;;486.80;2227.20;;;;;;5073171;28;20078;-57
2021/06/07 00:25:07;;;;;;;18.10;14.30;;;486.80;2201.60;;;;;;5073045;28;20035;-56
2021/06/07 00:27:34;;;;;;;14.98;13.48;;;486.80;2201.60;;;;;;5073387;28;20103;-56
2021/06/07 00:30:01;;;;;;;17.80;13.57;;;486.70;2201.60;;;;;;5073131;28;20496;-56
2021/06/07 00:32:26;;;;;;;14.80;13.38;;;486.70;2201.60;;;;;;5073321;28;20029;-56
2021/06/07 00:34:52;;;;;;;14.05;12.75;;;486.70;2201.60;;;;;;5073305;28;20031;-56
2021/06/07 00:37:18;;;;;;;14.10;12.60;;;486.70;2201.60;;;;;;5073254;28;20518;-56
2021/06/07 00:39:46;;;;;;;16.10;13.05;;;486.70;2201.60;;;;;;5072983;28;20024;-56
2021/06/07 00:42:12;;;;;;;18.30;13.80;;;486.60;2201.60;;;;;;5072956;28;20024;-56
2021/06/07 00:44:40;;;;;;;14.45;12.65;;;486.60;2201.60;;;;;;5072968;28;20489;-57
2021/06/07 00:47:07;;;;;;;14.25;12.85;;;486.60;2201.60;;;;;;5073214;28;20055;-56
2021/06/07 00:49:33;;;;;;;15.05;12.75;;;486.50;2201.60;;;;;;5071652;28;20033;-56
2021/06/07 00:51:59;;;;;;;19.10;13.90;;;486.50;2201.60;;;;;;5074503;28;20102;-56
2021/06/07 00:54:25;;;;;;;14.32;12.43;;;486.50;2176.00;;;;;;5076529;28;20032;-56
2021/06/07 00:56:50;;;;;;;15.68;11.70;;;486.50;2176.00;;;;;;5076400;28;20031;-57
2021/06/07 00:59:16;;;;;;;14.88;12.40;;;486.50;2176.00;;;;;;5075144;28;20185;-56
2021/06/07 01:01:43;;;;;;;16.92;12.82;;;486.50;2176.00;;;;;;5075078;28;20039;-57
2021/06/07 01:04:09;;;;;;;14.60;12.48;;;486.40;2176.00;;;;;;5075773;28;20354;-56
2021/06/07 01:06:36;;;;;;;14.05;12.65;;;461.60;2176.00;;;;;;5075682;28;20119;-56
2021/06/07 01:09:04;;;;;;;13.63;12.25;;;461.50;2201.60;;;;;;5075670;28;20036;-56
2021/06/07 01:11:31;;;;;;;17.02;12.27;;;461.40;2201.60;;;;;;5074437;28;20104;-57
2021/06/07 01:13:58;;;;;;;19.33;12.68;;;461.50;2201.60;;;;;;5075631;28;20033;-56
2021/06/07 01:16:24;;;;;;;18.25;12.50;;;461.60;2176.00;;;;;;5075289;28;20112;-59
2021/06/07 01:18:52;;;;;;;20.77;12.18;;;461.60;2176.00;;;;;;5075274;28;20103;-56
2021/06/07 01:21:22;;;;;;;13.68;12.20;;;461.60;2176.00;;;;;;5076375;28;20103;-57
2021/06/07 01:23:48;;;;;;;13.35;11.80;;;461.60;2176.00;;;;;;5073880;28;20036;-57
2021/06/07 01:26:17;;;;;;;15.98;11.88;;;461.60;2150.40;;;;;;5074159;28;20040;-56
2021/06/07 01:28:43;;;;;;;18.33;11.68;;;461.60;2150.40;;;;;;5073968;28;20036;-56
2021/06/07 01:31:11;;;;;;;13.77;12.25;;;461.60;2150.40;;;;;;5073888;28;20040;-57
2021/06/07 01:33:39;;;;;;;15.23;11.15;;;461.50;2150.40;;;;;;5073986;28;20124;-56
2021/06/07 01:36:05;;;;;;;11.90;10.68;;;461.50;2176.00;;;;;;5073931;28;20090;-58
2021/06/07 01:38:32;;;;;;;12.20;10.85;;;461.60;2150.40;;;;;;5075240;28;20035;-69
2021/06/07 01:41:00;;;;;;;16.35;11.77;;;461.60;2150.40;;;;;;5075744;28;20031;-56
2021/06/07 01:43:28;;;;;;;14.52;11.15;;;461.60;2150.40;;;;;;5075681;28;20056;-69
2021/06/07 01:45:54;;;;;;;16.13;11.15;;;461.60;2150.40;;;;;;5075907;28;20025;-57
2021/06/07 01:48:21;;;;;;;12.90;10.88;;;461.60;2150.40;;;;;;5075456;28;20111;-70
2021/06/07 01:50:48;;;;;;;17.85;12.63;;;461.50;2150.40;;;;;;5074570;28;20016;-69
2021/06/07 01:53:17;;;;;;;13.30;11.82;;;461.50;2150.40;;;;;;5075871;28;20041;-58
2021/06/07 01:55:48;;;;;;;20.48;10.43;;;461.50;2150.40;;;;;;5075742;28;20094;-65
2021/06/07 01:58:16;;;;;;;13.40;11.25;;;461.50;2150.40;;;;;;5075258;28;20531;-57
2021/06/07 02:00:57;;;;;;;15.90;11.20;;;461.50;2124.80;;;;;;5075423;28;20027;-69
2021/06/07 02:03:25;;;;;;;12.88;11.20;;;461.50;2124.80;;;;;;5075128;28;20094;-57
2021/06/07 02:05:54;;;;;;;14.63;11.05;;;461.50;2124.80;;;;;;5075283;28;20398;-56
2021/06/07 02:08:21;;;;;;;14.13;10.48;;;461.50;2124.80;;;;;;5075608;28;20024;-56
2021/06/07 02:10:50;;;;;;;15.80;10.68;;;461.50;2124.80;;;;;;5075487;28;20381;-70
2021/06/07 02:13:18;;;;;;;14.15;11.23;;;461.50;2124.80;;;;;;5075174;28;20039;-70
2021/06/07 02:16:00;;;;;;;17.50;10.25;;;461.50;2124.80;;;;;;5075686;28;20107;-56
2021/06/07 02:18:27;;;;;;;14.05;10.45;;;461.40;2124.80;;;;;;5075184;28;20020;-56
2021/06/07 02:20:53;;;;;;;13.65;11.23;;;461.40;2124.80;;;;;;5074992;28;20028;-56
2021/06/07 02:23:19;;;;;;;14.40;11.35;;;461.50;2124.80;;;;;;5075015;28;20031;-69
2021/06/07 02:25:45;;;;;;;15.27;10.93;;;461.50;2124.80;;;;;;5074999;28;20048;-57
2021/06/07 02:28:14;;;;;;;14.02;11.82;;;461.50;2099.20;;;;;;5075183;28;20031;-68
2021/06/07 02:30:40;;;;;;;12.55;10.82;;;461.50;2099.20;;;;;;5075099;28;20547;-70
2021/06/07 02:33:06;;;;;;;11.93;10.82;;;461.50;2099.20;;;;;;5074714;28;20044;-56
2021/06/07 02:35:32;;;;;;;13.90;10.40;;;461.30;2073.60;;;;;;5075100;28;20030;-69
2021/06/07 02:37:58;;;;;;;13.80;10.25;;;461.20;2099.20;;;;;;5074692;28;20100;-56
2021/06/07 02:40:27;;;;;;;18.88;11.18;;;461.30;2099.20;;;;;;5074920;28;20055;-56
2021/06/07 02:42:54;;;;;;;18.23;10.23;;;461.10;2124.80;;;;;;5074877;28;20025;-56
2021/06/07 02:45:20;;;;;;;12.80;10.70;;;461.10;2124.80;;;;;;5074514;28;20035;-56
2021/06/07 02:47:49;;;;;;;13.23;10.68;;;461.10;2099.20;;;;;;5074465;28;20105;-56
2021/06/07 02:50:18;;;;;;;11.52;10.27;;;461.20;2099.20;;;;;;5074445;28;20034;-56
2021/06/07 02:52:47;;;;;;;14.65;10.68;;;461.20;2099.20;;;;;;5074590;28;20043;-56
2021/06/07 02:55:23;;;;;;;16.33;10.68;;;461.00;2099.20;;;;;;5074344;28;20485;-66
2021/06/07 02:57:50;;;;;;;18.55;11.38;;;461.00;2099.20;;;;;;5073732;28;20048;-70
2021/06/07 03:00:21;;;;;;;14.45;11.35;;;460.80;2099.20;;;;;;5074290;28;20016;-56
2021/06/07 03:02:46;;;;;;;16.40;11.18;;;460.80;2124.80;;;;;;5074570;28;20028;-56
2021/06/07 03:05:13;;;;;;;16.33;11.65;;;460.90;2124.80;;;;;;5074199;28;20108;-70
2021/06/07 03:07:39;;;;;;;20.23;11.45;;;461.00;2099.20;;;;;;5074234;28;20491;-56
2021/06/07 03:10:07;;;;;;;18.63;11.32;;;461.10;2099.20;;;;;;5074181;28;20025;-56
2021/06/07 03:12:34;;;;;;;13.73;11.52;;;461.00;2099.20;;;;;;5074230;28;20040;-56
2021/06/07 03:15:00;;;;;;;15.50;11.40;;;461.00;2099.20;;;;;;5073494;28;20044;-69
2021/06/07 03:17:27;;;;;;;13.98;11.05;;;461.00;2099.20;;;;;;5073849;28;20141;-56
2021/06/07 03:19:53;;;;;;;12.93;11.43;;;460.90;2124.80;;;;;;5074123;28;20025;-56
2021/06/07 03:22:21;;;;;;;14.93;11.77;;;460.90;2099.20;;;;;;5073881;28;20054;-56
2021/06/07 03:24:49;;;;;;;16.40;12.13;;;460.90;2099.20;;;;;;5074145;28;20366;-56
2021/06/07 03:27:15;;;;;;;14.57;11.88;;;460.90;2099.20;;;;;;5074088;28;20445;-56
2021/06/07 03:29:41;;;;;;;15.80;12.00;;;461.00;2099.20;;;;;;5073844;28;20029;-69
2021/06/07 03:32:08;;;;;;;15.40;11.80;;;461.00;2099.20;;;;;;5073621;28;20029;-56
2021/06/07 03:34:34;;;;;;;14.27;11.93;;;460.90;2099.20;;;;;;5074019;28;20028;-56
2021/06/07 03:37:00;;;;;;;21.35;12.07;;;461.00;2099.20;;;;;;5073670;28;20042;-56
2021/06/07 03:39:26;;;;;;;16.85;11.65;;;461.00;2099.20;;;;;;5073681;28;20386;-68
2021/06/07 03:41:51;;;;;;;15.25;12.25;;;461.00;2099.20;;;;;;5073905;28;20032;-69
2021/06/07 03:44:17;;;;;;;20.15;12.30;;;461.10;2099.20;;;;;;5073758;28;20028;-69
2021/06/07 03:46:43;;;;;;;17.40;12.25;;;461.00;2099.20;;;;;;5073759;28;20052;-58
2021/06/07 03:49:09;;;;;;;17.25;12.20;;;461.10;2099.20;;;;;;5073492;28;20032;-56
2021/06/07 03:51:35;;;;;;;23.50;13.15;;;461.10;2099.20;;;;;;5073757;28;20028;-69
2021/06/07 03:54:01;;;;;;;20.40;12.23;;;461.10;2099.20;;;;;;5073406;28;20043;-69
2021/06/07 03:56:27;;;;;;;20.17;12.77;;;461.10;2099.20;;;;;;5073358;28;20032;-56
2021/06/07 03:58:53;;;;;;;19.73;12.32;;;460.90;2099.20;;;;;;5073280;28;20037;-56
2021/06/07 04:01:18;;;;;;;21.70;12.57;;;460.90;2124.80;;;;;;5073442;28;20469;-56
2021/06/07 04:03:44;;;;;;;15.57;12.23;;;460.90;2150.40;;;;;;5073732;28;20024;-57
2021/06/07 04:06:12;;;;;;;17.08;12.63;;;461.00;2124.80;;;;;;5073341;28;20031;-56
2021/06/07 04:08:38;;;;;;;19.65;12.80;;;461.00;2124.80;;;;;;5073287;28;20032;-69
2021/06/07 04:11:04;;;;;;;18.63;13.20;;;461.00;2124.80;;;;;;5073603;28;20107;-56
2021/06/07 04:13:30;;;;;;;18.05;12.77;;;461.00;2124.80;;;;;;5073236;28;20039;-69
2021/06/07 04:15:56;;;;;;;21.40;12.20;;;461.00;2124.80;;;;;;5073228;28;20017;-56
2021/06/07 04:18:22;;;;;;;26.58;12.75;;;461.20;2124.80;;;;;;5073223;28;20027;-56
2021/06/07 04:20:48;;;;;;;20.08;12.43;;;461.20;2099.20;;;;;;5073387;28;20024;-56
2021/06/07 04:23:14;;;;;;;19.20;12.60;;;461.40;2099.20;;;;;;5073159;28;20028;-56
2021/06/07 04:25:40;;;;;;;21.80;12.75;;;461.50;2073.60;;;;;;5074024;28;20028;-56
2021/06/07 04:28:06;;;;;;;21.35;11.38;;;461.50;2073.60;;;;;;5076403;28;20020;-56
2021/06/07 04:30:32;;;;;;;17.65;11.25;;;461.60;2073.60;;;;;;5077983;28;20115;-56
2021/06/07 04:32:59;;;;;;;13.85;11.63;;;461.60;2073.60;;;;;;5077004;28;20040;-56
2021/06/07 04:35:26;;;;;;;18.20;11.52;;;461.60;2073.60;;;;;;5077070;28;20098;-56
2021/06/07 04:37:53;;;;;;;21.05;11.35;;;461.60;2048.00;;;;;;5076999;28;20405;-57
2021/06/07 04:40:25;;;;;;;26.73;10.82;;;461.60;2073.60;;;;;;5076896;28;20078;-56
2021/06/07 04:42:52;;;;;;;15.57;10.35;;;461.70;2048.00;;;;;;5077060;28;20024;-56
2021/06/07 04:45:19;;;;;;;16.35;9.45;;;486.40;2048.00;;;;;;5076868;28;20021;-56
2021/06/07 04:47:46;;;;;;;14.98;9.95;;;486.50;2048.00;;;;;;5076908;28;20024;-56
2021/06/07 04:50:13;;;;;;;13.65;10.52;;;486.50;2048.00;;;;;;5075483;28;20115;-56
2021/06/07 04:52:59;;;;;;;15.50;10.38;;;486.50;2048.00;;;;;;5076886;28;20370;-56
2021/06/07 04:55:27;;;;;;;14.63;9.40;;;486.60;2048.00;;;;;;5076661;28;20024;-56
2021/06/07 04:57:53;;;;;;;13.02;9.07;;;486.70;2022.40;;;;;;5076387;28;20045;-56
2021/06/07 05:00:21;;;;;;;13.77;9.57;;;486.70;2022.40;;;;;;5076581;28;20020;-56
2021/06/07 05:02:48;;;;;;;17.83;10.18;;;486.70;2022.40;;;;;;5076586;28;20018;-56
2021/06/07 05:05:14;;;;;;;12.82;10.43;;;486.70;2048.00;;;;;;5076529;28;20025;-56
2021/06/07 05:07:40;;;;;;;12.15;9.82;;;486.80;2048.00;;;;;;5076448;28;20465;-56
2021/06/07 05:10:07;;;;;;;14.07;10.30;;;486.80;2048.00;;;;;;5076696;28;20032;-56
2021/06/07 05:12:33;;;;;;;19.30;11.02;;;486.80;2048.00;;;;;;5076603;28;20469;-56
2021/06/07 05:15:00;;;;;;;13.57;9.93;;;486.80;2048.00;;;;;;5076352;28;20112;-69
2021/06/07 05:17:26;;;;;;;9.32;8.43;;;486.80;2048.00;;;;;;5076247;28;20033;-56
2021/06/07 05:19:52;;;;;;;14.43;9.98;;;486.90;2048.00;;;;;;5076210;28;20025;-56
2021/06/07 05:22:18;;;;;;;15.07;10.55;;;486.90;2048.00;;;;;;5076482;28;20044;-56
2021/06/07 05:24:44;;;;;;;21.75;10.48;;;486.90;2048.00;;;;;;5076148;28;20044;-56
2021/06/07 05:27:10;;;;;;;15.38;8.90;;;486.90;2073.60;;;;;;5076391;28;20060;-56
2021/06/07 05:29:36;;;;;;;18.70;10.50;;;486.90;2048.00;;;;;;5075158;28;20503;-56
2021/06/07 05:32:02;;;;;;;12.20;9.05;;;487.00;2073.60;;;;;;5075949;28;20055;-56
2021/06/07 05:34:28;;;;;;;11.73;9.27;;;487.00;2048.00;;;;;;5075990;28;20039;-56
2021/06/07 05:36:53;;;;;;;14.27;9.85;;;487.00;2048.00;;;;;;5075940;28;20037;-56
2021/06/07 05:39:20;;;;;;;17.48;9.20;;;487.10;2048.00;;;;;;5074813;28;20025;-56
2021/06/07 05:41:47;;;;;;;13.73;8.02;;;487.10;2048.00;;;;;;5075789;28;20021;-56
2021/06/07 05:44:13;;;;;;;12.55;8.02;;;487.10;2048.00;;;;;;5075839;28;20027;-56
2021/06/07 05:46:39;;;;;;;12.77;9.23;;;487.20;2048.00;;;;;;5075420;28;20075;-57
2021/06/07 05:49:05;;;;;;;12.25;9.63;;;487.20;2048.00;;;;;;5075585;28;20485;-56
2021/06/07 05:51:31;;;;;;;12.63;7.75;;;487.20;2048.00;;;;;;5075906;28;20025;-56
2021/06/07 05:53:57;;;;;;;12.55;8.65;;;487.30;2048.00;;;;;;5075566;28;20378;-56
2021/06/07 05:56:23;;;;;;;9.85;7.32;;;512.00;2048.00;;;;;;5075897;28;20028;-56
2021/06/07 05:58:49;;;;;;;13.38;8.25;;;512.00;2048.00;;;;;;5075290;28;20048;-57
2021/06/07 06:01:15;;;;;;;11.85;8.43;;;512.10;2048.00;;;;;;5075213;28;20024;-57
2021/06/07 06:03:41;;;;;;;9.70;8.68;;;512.20;2022.40;;;;;;5075206;28;20028;-58
2021/06/07 06:06:07;;;;;;;10.68;6.97;;;512.20;2022.40;;;;;;5075155;28;20021;-57
2021/06/07 06:08:32;;;;;;;10.98;8.35;;;512.40;2022.40;;;;;;5075007;28;20101;-69
2021/06/07 06:10:58;;;;;;;9.70;8.60;;;512.50;1996.80;;;;;;5075046;28;20478;-56
2021/06/07 06:13:24;;;;;;;9.30;8.38;;;512.60;1996.80;;;;;;5074992;28;20439;-56
2021/06/07 06:15:50;;;;;;;9.55;7.90;;;512.60;1996.80;;;;;;5074799;28;20028;-69
2021/06/07 06:18:16;;;;;;;8.32;7.53;;;512.70;1996.80;;;;;;5074886;28;20020;-57
2021/06/07 06:20:42;;;;;;;12.55;9.15;;;512.80;1996.80;;;;;;5074849;28;20021;-57
2021/06/07 06:23:07;;;;;;;10.02;8.60;;;512.90;1996.80;;;;;;5075332;28;20374;-69
2021/06/07 06:25:33;;;;;;;10.93;8.68;;;537.60;2022.40;;;;;;5074914;28;20029;-68
2021/06/07 06:27:59;;;;;;;10.55;8.10;;;537.70;2022.40;;;;;;5066362;28;20036;-56
2021/06/07 06:30:28;;;;;;;9.70;8.10;;;537.80;1971.20;;;;;;5073084;28;20024;-66
2021/06/07 06:32:58;;;;;;;13.55;8.20;;;538.00;1971.20;;;;;;5071572;28;20040;-59
2021/06/07 06:35:24;;;;;;;11.82;6.88;;;538.10;1971.20;;;;;;5072973;28;20023;-57
2021/06/07 06:37:50;;;;;;;9.50;6.78;;;538.20;1971.20;;;;;;5072940;28;20134;-55
2021/06/07 06:40:22;;;;;;;11.30;6.22;;;538.40;1920.00;;;;;;5073127;28;20016;-56
2021/06/07 06:42:49;;;;;;;10.20;7.00;;;538.50;1920.00;;;;;;5073427;28;20021;-56
2021/06/07 06:45:16;;;;;;;12.35;8.23;;;563.20;1945.60;;;;;;5071406;28;20021;-65
2021/06/07 06:47:42;;;;;;;9.60;6.93;;;563.40;1945.60;;;;;;5073323;28;20020;-56
2021/06/07 06:50:10;;;;;;;9.75;6.13;;;563.50;1894.40;;;;;;5071952;28;20488;-56
2021/06/07 06:52:36;;;;;;;18.75;6.70;;;563.60;1894.40;;;;;;5072478;28;20644;-56
2021/06/07 06:55:04;;;;;;;7.25;6.40;;;563.80;1868.80;;;;;;5070980;28;20108;-56
2021/06/07 06:57:30;;;;;;;10.07;6.82;;;563.90;1894.40;;;;;;5070870;28;20066;-56
2021/06/07 06:59:56;;;;;;;15.68;6.68;;;563.90;1843.20;;;;;;5072885;28;20377;-55
2021/06/07 07:02:21;;;;;;;10.70;5.65;;;564.00;1843.20;;;;;;5071686;28;20021;-57
2021/06/07 07:04:47;;;;;;;17.35;5.97;;;588.80;1817.60;;;;;;5072072;28;20033;-56
2021/06/07 07:07:13;;;;;;;12.23;6.63;;;588.80;1817.60;;;;;;5072226;28;20097;-56
2021/06/07 07:09:42;;;;;;;13.07;6.85;;;588.90;1817.60;;;;;;5072467;28;20024;-58
2021/06/07 07:12:10;;;;;;;12.10;6.93;;;589.00;1792.00;;;;;;5072332;28;20036;-56
2021/06/07 07:14:36;;;;;;;16.13;6.15;;;589.10;1817.60;;;;;;5072258;28;20028;-57
2021/06/07 07:17:02;;;;;;;8.35;5.93;;;589.20;1792.00;;;;;;5072126;28;20044;-56
2021/06/07 07:19:28;;;;;;;12.32;6.55;;;589.20;1715.20;;;;;;5072190;28;20040;-56
2021/06/07 07:21:54;;;;;;;9.13;5.82;;;589.30;1766.40;;;;;;5072439;28;20029;-56
2021/06/07 07:24:19;;;;;;;6.65;5.10;;;589.20;1740.80;;;;;;5072248;28;20052;-56
2021/06/07 07:26:45;;;;;;;7.57;5.80;;;589.40;1740.80;;;;;;5072104;28;20115;-56
2021/06/07 07:29:11;;;;;;;9.50;5.32;;;589.50;1740.80;;;;;;5072000;28;20028;-56
2021/06/07 07:31:37;;;;;;;7.53;4.95;;;589.60;1740.80;;;;;;5072403;28;20048;-57
2021/06/07 07:34:03;;;;;;;8.00;4.50;;;589.60;1689.60;;;;;;5071683;28;20702;-56
2021/06/07 07:36:29;;;;;;;9.13;5.45;;;589.60;1715.20;;;;;;5072108;28;20104;-57
2021/06/07 07:38:55;;;;;;;11.25;5.70;;;614.40;1689.60;;;;;;5071993;28;20036;-58
2021/06/07 07:41:21;;;;;;;16.58;6.65;;;614.40;1715.20;;;;;;5072020;28;20052;-56
2021/06/07 07:43:47;;;;;;;5.93;5.18;;;614.40;1740.80;;;;;;5072383;28;20013;-56
2021/06/07 07:46:13;;;;;;;11.32;6.40;;;614.50;1689.60;;;;;;5071523;28;20028;-62
2021/06/07 07:48:39;;;;;;;9.35;5.28;;;614.50;1715.20;;;;;;5072084;28;20023;-58
2021/06/07 07:51:05;;;;;;;8.45;4.53;;;614.60;1689.60;;;;;;5071818;28;20094;-56
2021/06/07 07:53:31;;;;;;;6.47;4.32;;;614.60;1638.40;;;;;;5072184;28;20043;-56
2021/06/07 07:55:57;;;;;;;6.65;4.30;;;614.70;1638.40;;;;;;5071732;28;20033;-68
2021/06/07 07:58:24;;;;;;;7.20;3.85;;;614.80;1587.20;;;;;;5071695;28;20059;-56
2021/06/07 08:00:50;;;;;;;8.10;4.05;;;614.80;1638.40;;;;;;5071760;28;20029;-64
2021/06/07 08:03:17;;;;;;;5.78;3.38;;;614.90;1561.60;;;;;;5071205;28;20025;-56
2021/06/07 08:05:43;;;;;;;4.60;3.65;;;614.90;1561.60;;;;;;5070859;28;20020;-57
2021/06/07 08:08:09;;;;;;;6.32;4.07;;;614.90;1561.60;;;;;;5069605;28;20028;-57
2021/06/07 08:10:35;;;;;;;6.15;3.80;;;614.90;1587.20;;;;;;5070341;28;20149;-57
2021/06/07 08:13:01;;;;;;;13.10;4.03;;;614.90;1587.20;;;;;;5069734;28;20055;-59
2021/06/07 08:15:28;;;;;;;8.27;4.45;;;614.90;1638.40;;;;;;5069996;28;20454;-57
2021/06/07 08:17:54;;;;;;;4.65;3.78;;;615.00;1587.20;;;;;;5070100;28;20036;-62
2021/06/07 08:20:20;;;;;;;5.32;3.90;;;615.10;1561.60;;;;;;5070236;28;20461;-63
2021/06/07 08:22:49;;;;;;;4.97;4.15;;;615.10;1561.60;;;;;;5071582;28;20032;-56
2021/06/07 08:25:16;;;;;;;7.15;4.15;;;615.20;1561.60;;;;;;5071564;28;20025;-56
2021/06/07 08:27:42;;;;;;;8.00;5.43;;;615.30;1510.40;;;;;;5071346;28;20428;-56
2021/06/07 08:30:09;;;;;;;7.47;3.90;;;615.30;1561.60;;;;;;5071580;28;20385;-56
2021/06/07 08:32:37;;;;;;;7.15;4.00;;;615.30;1510.40;;;;;;5071812;28;20044;-59
2021/06/07 08:35:05;;;;;;;6.30;3.25;;;615.30;1510.40;;;;;;5071387;28;20056;-71
2021/06/07 08:37:31;;;;;;;7.85;3.42;;;615.30;1510.40;;;;;;5071704;28;20028;-64
2021/06/07 08:39:57;;;;;;;5.05;3.00;;;615.30;1433.60;;;;;;5071481;28;20017;-60
2021/06/07 08:42:23;;;;;;;4.40;3.10;;;615.30;1433.60;;;;;;5071505;28;20638;-56
2021/06/07 08:44:49;;;;;;;5.40;3.30;;;640.00;1408.00;;;;;;5071579;28;20017;-56
2021/06/07 08:47:15;;;;;;;8.20;3.13;;;640.00;1459.20;;;;;;5071654;28;20154;-56
2021/06/07 08:49:41;;;;;;;6.40;3.30;;;640.00;1459.20;;;;;;5071768;28;20028;-66
2021/06/07 08:52:07;;;;;;;5.07;3.10;;;640.00;1433.60;;;;;;5071006;28;20059;-62
2021/06/07 08:54:34;;;;;;;8.95;3.00;;;640.10;1382.40;;;;;;5071909;28;20033;-57
2021/06/07 08:57:00;;;;;;;7.30;3.15;;;640.10;1356.80;;;;;;5070703;28;20016;-57
2021/06/07 08:59:25;;;;;;;4.32;2.88;;;640.10;1408.00;;;;;;5071937;28;20036;-56
2021/06/07 09:01:55;;;;;;;12.23;4.05;;;640.20;1382.40;;;;;;5071348;28;20362;-61
2021/06/07 09:04:24;;;;;;;5.20;3.28;;;640.20;1408.00;;;;;;5071223;28;20078;-57
2021/06/07 09:06:51;;;;;;;9.77;3.10;;;640.20;1433.60;;;;;;5071226;28;20012;-56
2021/06/07 09:09:19;;;;;;;6.07;2.95;;;640.20;1433.60;;;;;;5071213;28;20027;-57
2021/06/07 09:12:01;;;;;;;5.13;3.13;;;640.20;1356.80;;;;;;5071465;28;20384;-56
2021/06/07 09:14:33;;;;;;;4.97;2.95;;;640.20;1382.40;;;;;;5074359;28;20036;-57
2021/06/07 09:16:59;;;;;;;2.95;2.65;;;640.20;1433.60;;;;;;5074797;28;20028;-57
2021/06/07 09:19:30;;;;;;;3.88;2.85;;;640.20;1433.60;;;;;;5074320;28;20016;-56
2021/06/07 09:22:21;;;;;;;3.55;2.60;;;640.30;1356.80;;;;;;5074962;28;20366;-56
2021/06/07 09:25:06;;;;;;;6.70;3.00;;;640.40;1331.20;;;;;;5075005;28;20116;-57
2021/06/07 09:27:32;;;;;;;8.45;2.40;;;640.30;1356.80;;;;;;5073261;28;20370;-57
2021/06/07 09:29:58;;;;;;;4.90;2.47;;;640.30;1331.20;;;;;;5074222;28;20386;-56
2021/06/07 09:32:24;;;;;;;6.55;3.35;;;640.50;1305.60;;;;;;5074710;28;20381;-58
2021/06/07 09:35:10;;;;;;;6.15;2.60;;;640.40;1331.20;;;;;;5074387;28;20020;-58
2021/06/07 09:37:36;;;;;;;3.17;2.60;;;640.40;1331.20;;;;;;5074173;28;20016;-67
2021/06/07 09:40:20;;;;;;;5.80;2.63;;;640.50;1305.60;;;;;;5074298;28;20029;-67
2021/06/07 09:43:00;;;;;;;4.18;2.55;;;640.50;1382.40;;;;;;5074636;28;20036;-57
2021/06/07 09:45:44;;;;;;;6.65;3.03;;;640.50;1305.60;;;;;;5074091;28;20419;-59
2021/06/07 09:48:12;;;;;;;8.75;3.10;;;640.50;1331.20;;;;;;5073806;28;20500;-57
2021/06/07 09:50:56;;;;;;;9.43;2.67;;;640.60;1356.80;;;;;;5074439;28;20079;-67
2021/06/07 09:53:40;;;;;;;4.03;2.75;;;640.60;1331.20;;;;;;5074054;28;20040;-56
2021/06/07 09:56:06;;;;;;;6.78;2.25;;;640.80;1280.00;;;;;;5074163;28;20086;-56
2021/06/07 09:58:33;;;;;;;4.93;2.42;;;640.70;1254.40;;;;;;5073543;28;20063;-56
2021/06/07 10:00:59;;;;;;;4.43;2.80;;;640.70;1254.40;;;;;;5074446;28;20025;-56
2021/06/07 10:03:31;;;;;;;5.00;2.45;;;640.60;1254.40;;;;;;5073949;28;20072;-69
2021/06/07 10:06:00;;;;;;;4.22;2.90;;;640.80;1254.40;;;;;;5074178;28;20382;-70
2021/06/07 10:08:42;;;;;;;6.43;2.70;;;640.70;1280.00;;;;;;5073367;28;20497;-56
2021/06/07 10:11:23;;;;;;;4.67;2.80;;;640.70;1280.00;;;;;;5073866;28;20016;-56
2021/06/07 10:13:50;;;;;;;6.47;2.90;;;640.70;1228.80;;;;;;5073525;28;20089;-72
2021/06/07 10:16:16;;;;;;;7.47;3.10;;;640.80;1254.40;;;;;;5074003;28;20533;-57
2021/06/07 10:18:42;;;;;;;8.45;2.95;;;640.80;1254.40;;;;;;5073301;28;20389;-65
2021/06/07 10:21:11;;;;;;;7.70;2.85;;;640.80;1228.80;;;;;;5074010;28;20090;-57
2021/06/07 10:23:37;;;;;;;9.60;2.65;;;640.90;1254.40;;;;;;5073420;28;20024;-73
2021/06/07 10:26:05;;;;;;;9.05;2.38;;;665.60;1228.80;;;;;;5072705;28;20027;-60
2021/06/07 10:28:31;;;;;;;5.00;2.75;;;665.70;1228.80;;;;;;5073378;28;20104;-64
2021/06/07 10:31:08;;;;;;;5.00;2.40;;;665.70;1177.60;;;;;;5072941;28;20562;-70
2021/06/07 10:33:36;;;;;;;6.22;2.72;;;665.70;1228.80;;;;;;5073661;28;20038;-58
2021/06/07 10:36:21;;;;;;;6.43;2.45;;;665.70;1177.60;;;;;;5072919;28;20039;-57
2021/06/07 10:38:48;;;;;;;5.45;2.70;;;665.70;1228.80;;;;;;5073731;28;20028;-57
2021/06/07 10:41:18;;;;;;;9.55;2.85;;;640.90;1228.80;;;;;;5071733;28;20077;-59
2021/06/07 10:43:49;;;;;;;7.13;4.60;;;640.90;1203.20;;;;;;5073395;28;20022;-57
2021/06/07 10:46:41;;;;;;;9.00;2.60;;;640.90;1203.20;;;;;;5073414;28;20029;-68
2021/06/07 10:49:39;;;;;;;6.32;2.72;;;665.60;1280.00;;;;;;5073391;28;20033;-57
2021/06/07 10:52:15;;;;;;;5.22;2.50;;;665.60;1228.80;;;;;;5072692;28;20534;-57
2021/06/07 10:54:46;;;;;;;9.15;2.75;;;640.90;1152.00;;;;;;5072176;28;20071;-67
2021/06/07 10:57:38;;;;;;;5.13;2.30;;;640.90;1177.60;;;;;;5072687;28;20013;-69
2021/06/07 11:00:14;;;;;;;11.65;2.78;;;665.70;1203.20;;;;;;5072793;28;20021;-67
2021/06/07 11:02:44;;;;;;;5.18;2.80;;;665.70;1254.40;;;;;;5065721;28;20036;-58
2021/06/07 11:05:22;;;;;;;4.70;2.47;;;665.70;1152.00;;;;;;5072656;28;20373;-57
2021/06/07 11:08:02;;;;;;;3.58;2.50;;;665.80;1177.60;;;;;;5073058;28;20362;-58
2021/06/07 11:10:38;;;;;;;5.28;2.45;;;665.80;1152.00;;;;;;5072533;28;20017;-65
2021/06/07 11:13:19;;;;;;;6.63;2.38;;;665.90;1100.80;;;;;;5072461;28;20032;-58
2021/06/07 11:16:00;;;;;;;3.45;2.38;;;665.90;1152.00;;;;;;5072935;28;20043;-59
2021/06/07 11:18:26;;;;;;;8.05;2.88;;;665.90;1126.40;;;;;;5072692;28;20032;-57
2021/06/07 11:20:58;;;;;;;4.88;2.50;;;666.00;1152.00;;;;;;5072196;28;20029;-74
2021/06/07 11:23:42;;;;;;;4.53;2.83;;;666.00;1152.00;;;;;;5072834;28;20024;-57
2021/06/07 11:26:20;;;;;;;4.85;2.50;;;666.00;1152.00;;;;;;5072240;28;20024;-57
2021/06/07 11:28:50;;;;;;;4.30;2.47;;;666.00;1152.00;;;;;;5072460;28;20369;-64
2021/06/07 11:31:18;;;;;;;6.88;2.58;;;666.10;1126.40;;;;;;5072370;28;20385;-69
2021/06/07 11:33:49;;;;;;;7.18;2.67;;;666.00;1126.40;;;;;;5072658;28;20060;-57
2021/06/07 11:36:37;;;;;;;7.10;2.55;;;666.00;1152.00;;;;;;5072016;28;20107;-57
2021/06/07 11:39:07;;;;;;;6.72;3.10;;;666.10;1177.60;;;;;;5073333;28;20508;-58
2021/06/07 11:41:54;;;;;;;4.32;2.47;;;666.00;1126.40;;;;;;5073515;28;20025;-67
2021/06/07 11:44:46;;;;;;;8.18;3.00;;;666.10;1100.80;;;;;;5073017;28;20029;-72
2021/06/07 11:47:15;;;;;;;14.77;2.83;;;666.20;1152.00;;;;;;5073384;28;20028;-72
2021/06/07 11:49:59;;;;;;;6.22;2.22;;;666.10;1152.00;;;;;;5073320;28;20069;-73
2021/06/07 11:52:36;;;;;;;5.50;2.75;;;666.20;1152.00;;;;;;5073540;28;20420;-57
2021/06/07 11:55:27;;;;;;;5.22;2.47;;;666.30;1126.40;;;;;;5073732;28;20025;-57
2021/06/07 11:58:10;;;;;;;3.47;2.00;;;666.40;1100.80;;;;;;5073269;28;20041;-72
2021/06/07 12:00:40;;;;;;;3.65;2.63;;;666.40;1075.20;;;;;;5073421;28;20579;-72
2021/06/07 12:03:09;;;;;;;6.25;2.40;;;666.40;1100.80;;;;;;5073782;28;20033;-57
2021/06/07 12:05:35;;;;;;;2.97;2.10;;;666.40;1049.60;;;;;;5073420;28;20060;-62
2021/06/07 12:08:06;;;;;;;5.65;2.13;;;691.20;1049.60;;;;;;5073537;28;20032;-57
2021/06/07 12:10:33;;;;;;;10.75;2.40;;;691.30;1126.40;;;;;;5073353;28;20036;-72
2021/06/07 12:13:23;;;;;;;5.28;2.55;;;691.30;1049.60;;;;;;5073571;28;20105;-57
2021/06/07 12:16:01;;;;;;;4.45;2.28;;;691.30;1075.20;;;;;;5072803;28;20486;-61